Terminal Aerodrome Forecast
Issued by NWS

Home | Current Version | Previous Version | Text Only | Print | Product List | Glossary On
Versions: 1 2 3 4 5 6 7 8 9 10 11 12 13 14 15 16 17 18 19 20 21 22 23 24 25 26
000
FTUS41 KALY 251912 AAA
TAFPSF
TAF AMD
KPSF 251912Z 2519/2618 06012G20KT 6SM -RA BR OVC013 WS020/10045KT
      TEMPO 2519/2520 4SM -RA BR BKN008
     FM252200 07016G30KT 5SM -RA BR OVC012
     FM260200 07011G28KT 3SM -RA BKN008 OVC015
     FM260600 06007KT 2SM -RA BR OVC008
     FM261100 36005KT 4SM -SHRA OVC006
     FM261600 32008KT P6SM SCT008 OVC015=

USA.gov is the U.S. government's official web portal to all federal, state and local government web resources and services.